Impacts METAR Board
IDs:

KIAH - Houston/Bush Intl, TX, US

Updated at: 1100 UTC 15 Dec 2018
Potential Impact None Slight Moderate High
Time 14/23Z 15/00Z 15/01Z 15/02Z 15/03Z 15/04Z 15/05Z 15/06Z 15/07Z 15/08Z 15/09Z 15/10Z 15/11Z
Temp48 48 49 49 49 50 51 51 51 51 51 50 48
Dewpt42 42 43 44 45 45 45 45 45 45 46 46 45
Altim30.02 30.03 30.05 30.06 30.05 30.07 30.07 30.07 30.09 30.09 30.08 30.08 30.09
VIS10 10 10 10 10 10 10 10 10 10 10 10 10
CIG18 18 19 17 15 16 17 16 16 18 17 18 --
CoverOVCOVCOVCOVCOVCOVCOVCOVCOVCOVCOVCOVCSCT
FltCatMVFRMVFRMVFRMVFRMVFRMVFRMVFRMVFRMVFRMVFRMVFRMVFRVFR
WX--------------------------
WDir290290310310310310310330310320310300240
WSpd9 13 10 10 9 10 11 11 8 10 9 6 4
WGst20 20 21 19 -- -- -- -- -- -- -- -- --
Raw hourly METARs
KIAH 142253Z 29009G20KT 10SM OVC018 09/06 A3002 RMK AO2 SLP165 T00890056 $
KIAH 142353Z 29013G20KT 10SM OVC018 09/06 A3003 RMK AO2 SLP169 T00890056 10111 20089 51026 $
KIAH 150053Z 31010G21KT 10SM OVC019 09/06 A3005 RMK AO2 SLP175 T00940061 $
KIAH 150153Z 31010G19KT 10SM OVC017 09/07 A3006 RMK AO2 SLP180 T00940067 $
KIAH 150253Z 31009KT 10SM OVC015 09/07 A3005 RMK AO2 SLP178 T00940072 50009 $
KIAH 150353Z 31010KT 10SM OVC016 10/07 A3007 RMK AO2 SLP182 T01000072 $
KIAH 150453Z 31011KT 10SM OVC017 11/07 A3007 RMK AO2 SLP183 T01060072 $
KIAH 150553Z 33011KT 10SM OVC016 11/07 A3007 RMK AO2 SLP184 T01060072 10106 20089 401110072 51006 $
KIAH 150653Z 31008KT 10SM OVC016 11/07 A3009 RMK AO2 SLP189 T01060072 $
KIAH 150753Z 32010KT 10SM OVC018 11/07 A3009 RMK AO2 SLP190 T01060072 $
KIAH 150853Z 31009KT 10SM OVC017 11/08 A3008 RMK AO2 SLP188 T01060078 50004 $
KIAH 150953Z 30006KT 10SM OVC018 10/08 A3008 RMK AO2 SLP186 T01000078 $
KIAH 151053Z 24004KT 10SM FEW020 SCT030 09/07 A3009 RMK AO2 SLP191 T00890072 $



Page loaded:  11:03 UTC  |   03:03 AM Pacific  |   04:03 AM Mountain  |   05:03 AM Central  |   06:03 AM Eastern

 

ADVISORIES

FORECASTS

FORECASTS

OBSERVATIONS

USER TOOLS

ABOUT US